ADDS METAR Data INFO
IDs: Format: Raw Decoded Include TAF

Data at: 0406 UTC 11 Dec 2017

METAR for:KZPH (Zephyrhills Muni, FL, US)
Text:KZPH 110355Z AUTO 00000KT 10SM CLR 01/00 A3034 RMK AO2 T00071002
Temperature: 0.7°C ( 33°F)
Dewpoint: -0.2°C ( 32°F) [RH = 94%]
Pressure (altimeter):30.34 inches Hg (1027.5 mb)
Winds:calm
Visibility:10 or more sm (16+ km)
Ceiling:at least 12,000 feet AGL
Clouds:sky clear below 12,000 feet AGL
QC Flag:automated observation with no human augmentation